sensor_id;sensor_type;location;lat;lon;timestamp;P1;durP1;ratioP1;P2;durP2;ratioP2
56039;SDS011;43937;41.366;2.072;2022-11-15T00:02:03;8.75;;;2.58;;
56039;SDS011;43937;41.366;2.072;2022-11-15T00:05:04;4.50;;;2.60;;
56039;SDS011;43937;41.366;2.072;2022-11-15T00:08:38;6.30;;;2.45;;
56039;SDS011;43937;41.366;2.072;2022-11-15T00:11:43;5.05;;;2.97;;
56039;SDS011;43937;41.366;2.072;2022-11-15T00:14:09;3.85;;;1.45;;
56039;SDS011;43937;41.366;2.072;2022-11-15T00:16:34;6.10;;;2.33;;
56039;SDS011;43937;41.366;2.072;2022-11-15T00:19:00;3.85;;;2.78;;
56039;SDS011;43937;41.366;2.072;2022-11-15T00:21:56;6.93;;;3.15;;
56039;SDS011;43937;41.366;2.072;2022-11-15T00:26:34;3.35;;;1.92;;
56039;SDS011;43937;41.366;2.072;2022-11-15T00:28:59;2.85;;;1.67;;
56039;SDS011;43937;41.366;2.072;2022-11-15T00:33:03;5.90;;;2.85;;
56039;SDS011;43937;41.366;2.072;2022-11-15T00:38:46;6.70;;;2.90;;
56039;SDS011;43937;41.366;2.072;2022-11-15T00:42:34;20.38;;;2.88;;
56039;SDS011;43937;41.366;2.072;2022-11-15T00:49:35;3.38;;;2.00;;
56039;SDS011;43937;41.366;2.072;2022-11-15T00:52:00;10.73;;;2.10;;
56039;SDS011;43937;41.366;2.072;2022-11-15T00:54:26;1.88;;;1.67;;
56039;SDS011;43937;41.366;2.072;2022-11-15T00:56:51;7.60;;;2.75;;
56039;SDS011;43937;41.366;2.072;2022-11-15T01:01:47;1.95;;;1.50;;
56039;SDS011;43937;41.366;2.072;2022-11-15T01:04:45;3.67;;;1.70;;
56039;SDS011;43937;41.366;2.072;2022-11-15T01:07:31;3.17;;;2.05;;
56039;SDS011;43937;41.366;2.072;2022-11-15T01:09:57;2.47;;;1.55;;
56039;SDS011;43937;41.366;2.072;2022-11-15T01:13:18;5.40;;;1.98;;
56039;SDS011;43937;41.366;2.072;2022-11-15T01:17:14;3.78;;;2.25;;
56039;SDS011;43937;41.366;2.072;2022-11-15T01:19:39;12.07;;;1.85;;
56039;SDS011;43937;41.366;2.072;2022-11-15T01:22:05;4.65;;;2.05;;
56039;SDS011;43937;41.366;2.072;2022-11-15T01:26:01;5.35;;;2.13;;
56039;SDS011;43937;41.366;2.072;2022-11-15T01:29:53;9.93;;;2.55;;
56039;SDS011;43937;41.366;2.072;2022-11-15T01:32:18;3.78;;;1.90;;
56039;SDS011;43937;41.366;2.072;2022-11-15T01:34:44;7.32;;;1.80;;
56039;SDS011;43937;41.366;2.072;2022-11-15T01:37:09;3.13;;;2.00;;
56039;SDS011;43937;41.366;2.072;2022-11-15T01:43:18;4.40;;;2.10;;
56039;SDS011;43937;41.366;2.072;2022-11-15T01:47:44;1.80;;;1.70;;
56039;SDS011;43937;41.366;2.072;2022-11-15T01:50:17;5.22;;;3.10;;
56039;SDS011;43937;41.366;2.072;2022-11-15T01:54:19;4.13;;;1.73;;
56039;SDS011;43937;41.366;2.072;2022-11-15T01:57:56;3.28;;;2.03;;
56039;SDS011;43937;41.366;2.072;2022-11-15T02:00:24;7.45;;;3.20;;
56039;SDS011;43937;41.366;2.072;2022-11-15T02:03:18;7.03;;;2.50;;
56039;SDS011;43937;41.366;2.072;2022-11-15T02:05:47;3.40;;;2.47;;
56039;SDS011;43937;41.366;2.072;2022-11-15T02:08:14;3.42;;;2.40;;
56039;SDS011;43937;41.366;2.072;2022-11-15T02:13:16;3.67;;;2.00;;
56039;SDS011;43937;41.366;2.072;2022-11-15T02:26:13;4.35;;;2.90;;
56039;SDS011;43937;41.366;2.072;2022-11-15T02:28:56;9.77;;;2.42;;
56039;SDS011;43937;41.366;2.072;2022-11-15T02:32:54;5.82;;;2.63;;
56039;SDS011;43937;41.366;2.072;2022-11-15T02:36:06;17.63;;;2.83;;
56039;SDS011;43937;41.366;2.072;2022-11-15T02:44:59;3.92;;;2.05;;
56039;SDS011;43937;41.366;2.072;2022-11-15T02:48:44;5.63;;;2.60;;
56039;SDS011;43937;41.366;2.072;2022-11-15T02:52:25;3.78;;;2.92;;
56039;SDS011;43937;41.366;2.072;2022-11-15T03:04:03;3.28;;;2.22;;
56039;SDS011;43937;41.366;2.072;2022-11-15T03:06:55;2.97;;;2.65;;
56039;SDS011;43937;41.366;2.072;2022-11-15T03:18:32;5.18;;;2.60;;
56039;SDS011;43937;41.366;2.072;2022-11-15T03:24:08;3.17;;;2.35;;
56039;SDS011;43937;41.366;2.072;2022-11-15T03:26:34;4.15;;;1.92;;
56039;SDS011;43937;41.366;2.072;2022-11-15T03:29:04;5.85;;;2.72;;
56039;SDS011;43937;41.366;2.072;2022-11-15T03:31:37;4.60;;;2.20;;
56039;SDS011;43937;41.366;2.072;2022-11-15T03:35:46;3.72;;;2.17;;
56039;SDS011;43937;41.366;2.072;2022-11-15T03:46:46;3.13;;;1.92;;
56039;SDS011;43937;41.366;2.072;2022-11-15T03:49:20;2.75;;;2.05;;
56039;SDS011;43937;41.366;2.072;2022-11-15T03:51:52;2.00;;;1.83;;
56039;SDS011;43937;41.366;2.072;2022-11-15T03:56:01;6.32;;;2.85;;
56039;SDS011;43937;41.366;2.072;2022-11-15T03:58:26;5.63;;;2.88;;
56039;SDS011;43937;41.366;2.072;2022-11-15T04:03:52;35.53;;;21.50;;
56039;SDS011;43937;41.366;2.072;2022-11-15T04:06:17;41.28;;;22.48;;
56039;SDS011;43937;41.366;2.072;2022-11-15T04:08:42;24.65;;;17.40;;
56039;SDS011;43937;41.366;2.072;2022-11-15T04:11:08;27.10;;;16.45;;
56039;SDS011;43937;41.366;2.072;2022-11-15T04:13:33;28.42;;;17.70;;
56039;SDS011;43937;41.366;2.072;2022-11-15T04:15:59;33.55;;;19.67;;
56039;SDS011;43937;41.366;2.072;2022-11-15T04:18:24;48.50;;;20.13;;
56039;SDS011;43937;41.366;2.072;2022-11-15T04:22:13;38.60;;;22.55;;
56039;SDS011;43937;41.366;2.072;2022-11-15T04:26:27;34.75;;;20.40;;
56039;SDS011;43937;41.366;2.072;2022-11-15T04:28:52;31.65;;;17.88;;
56039;SDS011;43937;41.366;2.072;2022-11-15T04:33:27;28.20;;;19.70;;
56039;SDS011;43937;41.366;2.072;2022-11-15T04:35:52;28.73;;;21.60;;
56039;SDS011;43937;41.366;2.072;2022-11-15T04:38:37;42.05;;;27.45;;
56039;SDS011;43937;41.366;2.072;2022-11-15T04:41:02;48.63;;;29.60;;
56039;SDS011;43937;41.366;2.072;2022-11-15T04:43:28;58.00;;;32.25;;
56039;SDS011;43937;41.366;2.072;2022-11-15T04:47:18;57.38;;;35.97;;
56039;SDS011;43937;41.366;2.072;2022-11-15T04:49:43;54.10;;;35.40;;
56039;SDS011;43937;41.366;2.072;2022-11-15T04:53:34;42.15;;;29.70;;
56039;SDS011;43937;41.366;2.072;2022-11-15T04:55:59;45.10;;;25.48;;
56039;SDS011;43937;41.366;2.072;2022-11-15T04:58:25;42.47;;;22.25;;
56039;SDS011;43937;41.366;2.072;2022-11-15T05:02:26;38.13;;;18.50;;
56039;SDS011;43937;41.366;2.072;2022-11-15T05:06:01;31.13;;;14.65;;
56039;SDS011;43937;41.366;2.072;2022-11-15T05:08:26;37.47;;;15.55;;
56039;SDS011;43937;41.366;2.072;2022-11-15T05:10:52;22.13;;;11.82;;
56039;SDS011;43937;41.366;2.072;2022-11-15T05:13:17;15.75;;;10.25;;
56039;SDS011;43937;41.366;2.072;2022-11-15T05:15:43;27.58;;;11.57;;
56039;SDS011;43937;41.366;2.072;2022-11-15T05:18:08;18.58;;;8.77;;
56039;SDS011;43937;41.366;2.072;2022-11-15T05:21:32;11.75;;;7.80;;
56039;SDS011;43937;41.366;2.072;2022-11-15T05:23:58;19.88;;;7.63;;
56039;SDS011;43937;41.366;2.072;2022-11-15T05:27:14;14.50;;;8.57;;
56039;SDS011;43937;41.366;2.072;2022-11-15T05:34:50;18.13;;;4.95;;
56039;SDS011;43937;41.366;2.072;2022-11-15T05:37:15;10.82;;;4.55;;
56039;SDS011;43937;41.366;2.072;2022-11-15T05:40:37;11.75;;;4.93;;
56039;SDS011;43937;41.366;2.072;2022-11-15T05:43:02;9.05;;;5.53;;
56039;SDS011;43937;41.366;2.072;2022-11-15T05:49:10;6.75;;;4.47;;
56039;SDS011;43937;41.366;2.072;2022-11-15T05:51:40;6.97;;;4.30;;
56039;SDS011;43937;41.366;2.072;2022-11-15T05:58:07;12.68;;;4.13;;
56039;SDS011;43937;41.366;2.072;2022-11-15T06:00:33;6.18;;;3.10;;
56039;SDS011;43937;41.366;2.072;2022-11-15T06:03:38;5.57;;;3.70;;
56039;SDS011;43937;41.366;2.072;2022-11-15T06:06:03;5.72;;;3.33;;
56039;SDS011;43937;41.366;2.072;2022-11-15T06:09:21;12.30;;;3.00;;
56039;SDS011;43937;41.366;2.072;2022-11-15T06:11:46;4.30;;;2.55;;
56039;SDS011;43937;41.366;2.072;2022-11-15T06:14:12;8.15;;;3.25;;
56039;SDS011;43937;41.366;2.072;2022-11-15T06:16:56;5.28;;;3.13;;
56039;SDS011;43937;41.366;2.072;2022-11-15T06:19:21;7.47;;;3.35;;
56039;SDS011;43937;41.366;2.072;2022-11-15T06:24:13;5.55;;;3.10;;
56039;SDS011;43937;41.366;2.072;2022-11-15T06:26:39;8.50;;;3.50;;
56039;SDS011;43937;41.366;2.072;2022-11-15T06:29:04;5.07;;;2.75;;
56039;SDS011;43937;41.366;2.072;2022-11-15T06:32:07;4.72;;;2.88;;
56039;SDS011;43937;41.366;2.072;2022-11-15T06:35:38;7.45;;;3.75;;
56039;SDS011;43937;41.366;2.072;2022-11-15T06:39:00;49.28;;;5.38;;
56039;SDS011;43937;41.366;2.072;2022-11-15T06:45:13;6.20;;;2.53;;
56039;SDS011;43937;41.366;2.072;2022-11-15T06:51:19;4.75;;;3.10;;
56039;SDS011;43937;41.366;2.072;2022-11-15T06:53:45;21.42;;;5.57;;
56039;SDS011;43937;41.366;2.072;2022-11-15T06:57:22;6.30;;;3.63;;
56039;SDS011;43937;41.366;2.072;2022-11-15T07:00:18;7.85;;;4.47;;
56039;SDS011;43937;41.366;2.072;2022-11-15T07:02:45;5.13;;;3.40;;
56039;SDS011;43937;41.366;2.072;2022-11-15T07:07:24;4.70;;;3.45;;
56039;SDS011;43937;41.366;2.072;2022-11-15T07:09:50;10.40;;;3.42;;
56039;SDS011;43937;41.366;2.072;2022-11-15T07:13:44;11.18;;;3.58;;
56039;SDS011;43937;41.366;2.072;2022-11-15T07:17:22;10.75;;;4.25;;
56039;SDS011;43937;41.366;2.072;2022-11-15T07:19:48;11.05;;;4.40;;
56039;SDS011;43937;41.366;2.072;2022-11-15T07:22:13;5.63;;;3.45;;
56039;SDS011;43937;41.366;2.072;2022-11-15T07:24:38;12.40;;;4.45;;
56039;SDS011;43937;41.366;2.072;2022-11-15T07:27:04;6.32;;;4.10;;
56039;SDS011;43937;41.366;2.072;2022-11-15T07:33:20;10.30;;;4.28;;
56039;SDS011;43937;41.366;2.072;2022-11-15T07:37:39;8.68;;;4.68;;
56039;SDS011;43937;41.366;2.072;2022-11-15T07:40:04;8.23;;;3.78;;
56039;SDS011;43937;41.366;2.072;2022-11-15T07:42:31;11.65;;;5.13;;
56039;SDS011;43937;41.366;2.072;2022-11-15T07:48:32;7.07;;;4.22;;
56039;SDS011;43937;41.366;2.072;2022-11-15T07:50:58;12.65;;;4.38;;
56039;SDS011;43937;41.366;2.072;2022-11-15T07:59:46;8.52;;;4.57;;
56039;SDS011;43937;41.366;2.072;2022-11-15T08:02:12;34.92;;;6.60;;
56039;SDS011;43937;41.366;2.072;2022-11-15T08:04:37;50.45;;;8.75;;
56039;SDS011;43937;41.366;2.072;2022-11-15T08:07:43;21.65;;;5.38;;
56039;SDS011;43937;41.366;2.072;2022-11-15T08:12:35;7.40;;;3.75;;
56039;SDS011;43937;41.366;2.072;2022-11-15T08:15:37;11.57;;;4.40;;
56039;SDS011;43937;41.366;2.072;2022-11-15T08:18:40;13.27;;;3.90;;
56039;SDS011;43937;41.366;2.072;2022-11-15T08:21:05;6.38;;;4.30;;
56039;SDS011;43937;41.366;2.072;2022-11-15T08:23:30;5.35;;;4.07;;
56039;SDS011;43937;41.366;2.072;2022-11-15T08:26:03;7.97;;;4.72;;
56039;SDS011;43937;41.366;2.072;2022-11-15T08:29:36;16.92;;;5.93;;
56039;SDS011;43937;41.366;2.072;2022-11-15T08:33:20;7.25;;;4.28;;
56039;SDS011;43937;41.366;2.072;2022-11-15T08:35:45;24.67;;;6.13;;
56039;SDS011;43937;41.366;2.072;2022-11-15T08:40:11;22.73;;;7.15;;
56039;SDS011;43937;41.366;2.072;2022-11-15T08:44:02;16.65;;;5.50;;
56039;SDS011;43937;41.366;2.072;2022-11-15T08:48:01;11.23;;;4.50;;
56039;SDS011;43937;41.366;2.072;2022-11-15T08:57:49;6.32;;;4.05;;
56039;SDS011;43937;41.366;2.072;2022-11-15T09:00:15;12.07;;;5.10;;
56039;SDS011;43937;41.366;2.072;2022-11-15T09:02:40;12.10;;;4.40;;
56039;SDS011;43937;41.366;2.072;2022-11-15T09:09:02;7.50;;;4.28;;
56039;SDS011;43937;41.366;2.072;2022-11-15T09:13:06;20.67;;;4.60;;
56039;SDS011;43937;41.366;2.072;2022-11-15T09:15:31;18.60;;;5.35;;
56039;SDS011;43937;41.366;2.072;2022-11-15T09:18:00;9.05;;;4.13;;
56039;SDS011;43937;41.366;2.072;2022-11-15T09:20:25;7.32;;;4.32;;
56039;SDS011;43937;41.366;2.072;2022-11-15T09:24:15;6.13;;;4.22;;
56039;SDS011;43937;41.366;2.072;2022-11-15T09:30:11;14.13;;;5.32;;
56039;SDS011;43937;41.366;2.072;2022-11-15T09:37:31;7.15;;;5.70;;
56039;SDS011;43937;41.366;2.072;2022-11-15T09:39:57;8.00;;;4.97;;
56039;SDS011;43937;41.366;2.072;2022-11-15T09:50:17;6.90;;;4.57;;
56039;SDS011;43937;41.366;2.072;2022-11-15T09:54:51;5.97;;;4.68;;
56039;SDS011;43937;41.366;2.072;2022-11-15T09:57:23;13.77;;;6.97;;
56039;SDS011;43937;41.366;2.072;2022-11-15T10:05:18;30.10;;;8.15;;
56039;SDS011;43937;41.366;2.072;2022-11-15T10:12:32;7.13;;;3.45;;
56039;SDS011;43937;41.366;2.072;2022-11-15T10:20:42;9.70;;;3.17;;
56039;SDS011;43937;41.366;2.072;2022-11-15T10:28:58;5.97;;;3.20;;
56039;SDS011;43937;41.366;2.072;2022-11-15T10:44:26;12.20;;;2.83;;
56039;SDS011;43937;41.366;2.072;2022-11-15T10:51:04;2.75;;;2.03;;
56039;SDS011;43937;41.366;2.072;2022-11-15T10:55:51;1.70;;;1.38;;
56039;SDS011;43937;41.366;2.072;2022-11-15T10:58:51;2.60;;;1.13;;
56039;SDS011;43937;41.366;2.072;2022-11-15T11:03:20;1.75;;;1.17;;
56039;SDS011;43937;41.366;2.072;2022-11-15T11:08:25;0.38;;;0.38;;
56039;SDS011;43937;41.366;2.072;2022-11-15T11:11:16;2.38;;;0.57;;
56039;SDS011;43937;41.366;2.072;2022-11-15T11:23:14;1.58;;;0.77;;
56039;SDS011;43937;41.366;2.072;2022-11-15T11:32:01;0.08;;;0.08;;
56039;SDS011;43937;41.366;2.072;2022-11-15T11:35:14;1.70;;;0.80;;
56039;SDS011;43937;41.366;2.072;2022-11-15T11:45:22;1.45;;;0.93;;
56039;SDS011;43937;41.366;2.072;2022-11-15T11:52:14;0.32;;;0.30;;
56039;SDS011;43937;41.366;2.072;2022-11-15T11:55:33;0.40;;;0.30;;
56039;SDS011;43937;41.366;2.072;2022-11-15T11:58:49;0.60;;;0.60;;
56039;SDS011;43937;41.366;2.072;2022-11-15T12:02:02;0.50;;;0.20;;
56039;SDS011;43937;41.366;2.072;2022-11-15T12:05:35;0.10;;;0.10;;
56039;SDS011;43937;41.366;2.072;2022-11-15T12:10:15;0.88;;;0.28;;
56039;SDS011;43937;41.366;2.072;2022-11-15T12:13:02;1.58;;;0.85;;
56039;SDS011;43937;41.366;2.072;2022-11-15T12:19:24;1.55;;;0.30;;
56039;SDS011;43937;41.366;2.072;2022-11-15T12:27:35;0.35;;;0.30;;
56039;SDS011;43937;41.366;2.072;2022-11-15T12:30:11;2.15;;;0.40;;
56039;SDS011;43937;41.366;2.072;2022-11-15T12:39:16;1.08;;;0.43;;
56039;SDS011;43937;41.366;2.072;2022-11-15T12:43:41;0.10;;;0.10;;
56039;SDS011;43937;41.366;2.072;2022-11-15T12:46:11;0.80;;;0.35;;
56039;SDS011;43937;41.366;2.072;2022-11-15T12:52:10;0.40;;;0.20;;
56039;SDS011;43937;41.366;2.072;2022-11-15T12:58:26;0.55;;;0.22;;
56039;SDS011;43937;41.366;2.072;2022-11-15T13:04:54;0.65;;;0.50;;
56039;SDS011;43937;41.366;2.072;2022-11-15T13:08:36;0.30;;;0.20;;
56039;SDS011;43937;41.366;2.072;2022-11-15T13:17:51;1.10;;;0.30;;
56039;SDS011;43937;41.366;2.072;2022-11-15T13:20:20;1.17;;;1.05;;
56039;SDS011;43937;41.366;2.072;2022-11-15T13:25:14;0.75;;;0.38;;
56039;SDS011;43937;41.366;2.072;2022-11-15T13:27:48;1.70;;;0.60;;
56039;SDS011;43937;41.366;2.072;2022-11-15T13:38:11;0.28;;;0.28;;
56039;SDS011;43937;41.366;2.072;2022-11-15T13:40:45;0.98;;;0.40;;
56039;SDS011;43937;41.366;2.072;2022-11-15T13:54:53;6.38;;;3.05;;
56039;SDS011;43937;41.366;2.072;2022-11-15T14:03:06;3.63;;;2.38;;
56039;SDS011;43937;41.366;2.072;2022-11-15T14:05:40;3.65;;;1.63;;
56039;SDS011;43937;41.366;2.072;2022-11-15T14:10:46;3.72;;;1.77;;
56039;SDS011;43937;41.366;2.072;2022-11-15T14:13:28;7.53;;;2.25;;
56039;SDS011;43937;41.366;2.072;2022-11-15T14:16:12;3.03;;;1.98;;
56039;SDS011;43937;41.366;2.072;2022-11-15T14:21:11;5.97;;;1.80;;
56039;SDS011;43937;41.366;2.072;2022-11-15T14:23:37;3.38;;;1.02;;
56039;SDS011;43937;41.366;2.072;2022-11-15T14:26:02;4.13;;;1.42;;
56039;SDS011;43937;41.366;2.072;2022-11-15T14:30:33;4.90;;;1.38;;
56039;SDS011;43937;41.366;2.072;2022-11-15T14:32:58;1.92;;;1.23;;
56039;SDS011;43937;41.366;2.072;2022-11-15T14:38:08;4.30;;;1.23;;
56039;SDS011;43937;41.366;2.072;2022-11-15T14:40:34;2.47;;;1.30;;
56039;SDS011;43937;41.366;2.072;2022-11-15T14:43:15;4.43;;;1.55;;
56039;SDS011;43937;41.366;2.072;2022-11-15T14:45:41;3.55;;;1.15;;
56039;SDS011;43937;41.366;2.072;2022-11-15T14:49:52;5.88;;;1.10;;
56039;SDS011;43937;41.366;2.072;2022-11-15T14:54:49;3.75;;;1.20;;
56039;SDS011;43937;41.366;2.072;2022-11-15T14:58:00;1.20;;;1.10;;
56039;SDS011;43937;41.366;2.072;2022-11-15T15:03:58;2.53;;;1.30;;
56039;SDS011;43937;41.366;2.072;2022-11-15T15:06:23;2.78;;;1.83;;
56039;SDS011;43937;41.366;2.072;2022-11-15T15:08:49;2.20;;;1.63;;
56039;SDS011;43937;41.366;2.072;2022-11-15T15:11:55;4.18;;;1.75;;
56039;SDS011;43937;41.366;2.072;2022-11-15T15:18:28;3.45;;;1.52;;
56039;SDS011;43937;41.366;2.072;2022-11-15T15:31:11;4.68;;;2.08;;
56039;SDS011;43937;41.366;2.072;2022-11-15T15:33:37;5.55;;;1.88;;
56039;SDS011;43937;41.366;2.072;2022-11-15T15:36:03;5.93;;;1.52;;
56039;SDS011;43937;41.366;2.072;2022-11-15T15:38:28;7.30;;;2.47;;
56039;SDS011;43937;41.366;2.072;2022-11-15T15:41:52;2.08;;;1.45;;
56039;SDS011;43937;41.366;2.072;2022-11-15T15:44:17;4.05;;;1.38;;
56039;SDS011;43937;41.366;2.072;2022-11-15T15:46:42;3.63;;;1.52;;
56039;SDS011;43937;41.366;2.072;2022-11-15T15:50:57;2.25;;;1.20;;
56039;SDS011;43937;41.366;2.072;2022-11-15T15:53:22;2.17;;;1.17;;
56039;SDS011;43937;41.366;2.072;2022-11-15T15:55:48;3.38;;;0.88;;
56039;SDS011;43937;41.366;2.072;2022-11-15T15:58:13;3.17;;;1.20;;
56039;SDS011;43937;41.366;2.072;2022-11-15T16:02:42;7.70;;;2.33;;
56039;SDS011;43937;41.366;2.072;2022-11-15T16:05:27;4.10;;;1.65;;
56039;SDS011;43937;41.366;2.072;2022-11-15T16:07:52;4.32;;;2.00;;
56039;SDS011;43937;41.366;2.072;2022-11-15T16:11:50;4.40;;;1.50;;
56039;SDS011;43937;41.366;2.072;2022-11-15T16:14:53;5.53;;;1.10;;
56039;SDS011;43937;41.366;2.072;2022-11-15T16:19:07;3.55;;;1.45;;
56039;SDS011;43937;41.366;2.072;2022-11-15T16:23:47;10.50;;;1.40;;
56039;SDS011;43937;41.366;2.072;2022-11-15T16:26:25;4.88;;;1.38;;
56039;SDS011;43937;41.366;2.072;2022-11-15T16:28:53;0.60;;;0.60;;
56039;SDS011;43937;41.366;2.072;2022-11-15T16:31:53;0.50;;;0.50;;
56039;SDS011;43937;41.366;2.072;2022-11-15T16:36:26;1.10;;;0.70;;
56039;SDS011;43937;41.366;2.072;2022-11-15T16:38:52;2.38;;;0.88;;
56039;SDS011;43937;41.366;2.072;2022-11-15T16:41:18;3.85;;;1.83;;
56039;SDS011;43937;41.366;2.072;2022-11-15T16:47:02;3.28;;;1.48;;
56039;SDS011;43937;41.366;2.072;2022-11-15T16:50:28;2.53;;;0.60;;
56039;SDS011;43937;41.366;2.072;2022-11-15T16:52:57;1.67;;;0.85;;
56039;SDS011;43937;41.366;2.072;2022-11-15T16:55:25;1.42;;;0.50;;
56039;SDS011;43937;41.366;2.072;2022-11-15T16:57:52;2.63;;;0.75;;
56039;SDS011;43937;41.366;2.072;2022-11-15T17:00:19;1.98;;;0.85;;
56039;SDS011;43937;41.366;2.072;2022-11-15T17:02:46;0.30;;;0.30;;
56039;SDS011;43937;41.366;2.072;2022-11-15T17:07:12;0.63;;;0.57;;
56039;SDS011;43937;41.366;2.072;2022-11-15T17:09:37;1.00;;;0.85;;
56039;SDS011;43937;41.366;2.072;2022-11-15T17:12:34;0.50;;;0.47;;
56039;SDS011;43937;41.366;2.072;2022-11-15T17:15:00;1.52;;;0.93;;
56039;SDS011;43937;41.366;2.072;2022-11-15T17:17:26;3.45;;;0.73;;
56039;SDS011;43937;41.366;2.072;2022-11-15T17:21:44;5.35;;;1.40;;
56039;SDS011;43937;41.366;2.072;2022-11-15T17:24:11;2.70;;;0.60;;
56039;SDS011;43937;41.366;2.072;2022-11-15T17:31:14;1.50;;;1.02;;
56039;SDS011;43937;41.366;2.072;2022-11-15T17:35:20;3.03;;;0.80;;
56039;SDS011;43937;41.366;2.072;2022-11-15T17:37:45;3.88;;;0.63;;
56039;SDS011;43937;41.366;2.072;2022-11-15T17:40:15;1.60;;;0.95;;
56039;SDS011;43937;41.366;2.072;2022-11-15T17:42:40;0.93;;;0.65;;
56039;SDS011;43937;41.366;2.072;2022-11-15T17:45:06;0.77;;;0.77;;
56039;SDS011;43937;41.366;2.072;2022-11-15T17:49:27;0.25;;;0.25;;
56039;SDS011;43937;41.366;2.072;2022-11-15T17:51:52;1.80;;;0.80;;
56039;SDS011;43937;41.366;2.072;2022-11-15T17:54:18;1.08;;;0.60;;
56039;SDS011;43937;41.366;2.072;2022-11-15T17:58:24;1.15;;;0.82;;
56039;SDS011;43937;41.366;2.072;2022-11-15T18:00:49;3.28;;;0.93;;
56039;SDS011;43937;41.366;2.072;2022-11-15T18:03:15;0.70;;;0.55;;
56039;SDS011;43937;41.366;2.072;2022-11-15T18:05:40;6.07;;;1.30;;
56039;SDS011;43937;41.366;2.072;2022-11-15T18:10:59;2.63;;;0.80;;
56039;SDS011;43937;41.366;2.072;2022-11-15T18:13:54;2.83;;;0.90;;
56039;SDS011;43937;41.366;2.072;2022-11-15T18:18:25;2.67;;;0.98;;
56039;SDS011;43937;41.366;2.072;2022-11-15T18:20:57;1.15;;;0.47;;
56039;SDS011;43937;41.366;2.072;2022-11-15T18:24:07;1.10;;;0.80;;
56039;SDS011;43937;41.366;2.072;2022-11-15T18:29:34;6.57;;;0.80;;
56039;SDS011;43937;41.366;2.072;2022-11-15T18:32:01;3.35;;;1.40;;
56039;SDS011;43937;41.366;2.072;2022-11-15T18:34:30;0.73;;;0.63;;
56039;SDS011;43937;41.366;2.072;2022-11-15T18:36:57;1.20;;;0.80;;
56039;SDS011;43937;41.366;2.072;2022-11-15T18:42:24;1.08;;;0.88;;
56039;SDS011;43937;41.366;2.072;2022-11-15T18:46:25;1.05;;;0.80;;
56039;SDS011;43937;41.366;2.072;2022-11-15T18:51:40;0.40;;;0.40;;
56039;SDS011;43937;41.366;2.072;2022-11-15T18:54:07;0.65;;;0.52;;
56039;SDS011;43937;41.366;2.072;2022-11-15T18:56:34;1.58;;;0.77;;
56039;SDS011;43937;41.366;2.072;2022-11-15T19:01:01;0.47;;;0.40;;
56039;SDS011;43937;41.366;2.072;2022-11-15T19:03:47;0.70;;;0.40;;
56039;SDS011;43937;41.366;2.072;2022-11-15T19:08:04;1.27;;;0.85;;
56039;SDS011;43937;41.366;2.072;2022-11-15T19:10:29;4.05;;;1.67;;
56039;SDS011;43937;41.366;2.072;2022-11-15T19:14:47;6.18;;;1.17;;
56039;SDS011;43937;41.366;2.072;2022-11-15T19:17:12;0.80;;;0.77;;
56039;SDS011;43937;41.366;2.072;2022-11-15T19:19:38;12.60;;;1.92;;
56039;SDS011;43937;41.366;2.072;2022-11-15T19:22:03;1.55;;;0.80;;
56039;SDS011;43937;41.366;2.072;2022-11-15T19:24:29;1.27;;;0.70;;
56039;SDS011;43937;41.366;2.072;2022-11-15T19:27:31;1.48;;;0.93;;
56039;SDS011;43937;41.366;2.072;2022-11-15T19:31:12;3.88;;;1.40;;
56039;SDS011;43937;41.366;2.072;2022-11-15T19:35:49;0.90;;;0.70;;
56039;SDS011;43937;41.366;2.072;2022-11-15T19:38:15;2.30;;;1.38;;
56039;SDS011;43937;41.366;2.072;2022-11-15T19:40:40;5.82;;;1.45;;
56039;SDS011;43937;41.366;2.072;2022-11-15T19:45:18;7.47;;;1.30;;
56039;SDS011;43937;41.366;2.072;2022-11-15T19:47:44;1.13;;;1.00;;
56039;SDS011;43937;41.366;2.072;2022-11-15T19:50:09;4.80;;;2.45;;
56039;SDS011;43937;41.366;2.072;2022-11-15T19:53:24;9.82;;;1.50;;
56039;SDS011;43937;41.366;2.072;2022-11-15T20:01:16;1.75;;;0.90;;
56039;SDS011;43937;41.366;2.072;2022-11-15T20:03:44;1.30;;;0.85;;
56039;SDS011;43937;41.366;2.072;2022-11-15T20:06:15;1.85;;;1.30;;
56039;SDS011;43937;41.366;2.072;2022-11-15T20:10:14;4.93;;;2.28;;
56039;SDS011;43937;41.366;2.072;2022-11-15T20:12:40;3.80;;;1.67;;
56039;SDS011;43937;41.366;2.072;2022-11-15T20:16:00;4.40;;;1.70;;
56039;SDS011;43937;41.366;2.072;2022-11-15T20:18:26;1.85;;;1.27;;
56039;SDS011;43937;41.366;2.072;2022-11-15T20:20:53;1.70;;;1.27;;
56039;SDS011;43937;41.366;2.072;2022-11-15T20:23:26;1.88;;;1.27;;
56039;SDS011;43937;41.366;2.072;2022-11-15T20:27:47;6.53;;;1.40;;
56039;SDS011;43937;41.366;2.072;2022-11-15T20:30:12;4.22;;;1.40;;
56039;SDS011;43937;41.366;2.072;2022-11-15T20:33:55;4.07;;;1.50;;
56039;SDS011;43937;41.366;2.072;2022-11-15T20:36:22;1.15;;;0.95;;
56039;SDS011;43937;41.366;2.072;2022-11-15T20:38:47;2.38;;;1.05;;
56039;SDS011;43937;41.366;2.072;2022-11-15T20:41:13;0.90;;;0.70;;
56039;SDS011;43937;41.366;2.072;2022-11-15T20:48:25;2.13;;;1.40;;
56039;SDS011;43937;41.366;2.072;2022-11-15T20:52:42;2.15;;;1.40;;
56039;SDS011;43937;41.366;2.072;2022-11-15T20:56:29;1.42;;;0.88;;
56039;SDS011;43937;41.366;2.072;2022-11-15T21:03:12;1.10;;;1.00;;
56039;SDS011;43937;41.366;2.072;2022-11-15T21:05:39;0.77;;;0.50;;
56039;SDS011;43937;41.366;2.072;2022-11-15T21:08:39;0.93;;;0.65;;
56039;SDS011;43937;41.366;2.072;2022-11-15T21:11:50;1.83;;;1.10;;
56039;SDS011;43937;41.366;2.072;2022-11-15T21:16:19;3.30;;;1.48;;
56039;SDS011;43937;41.366;2.072;2022-11-15T21:18:44;4.95;;;1.58;;
56039;SDS011;43937;41.366;2.072;2022-11-15T21:21:21;2.92;;;2.13;;
56039;SDS011;43937;41.366;2.072;2022-11-15T21:23:46;7.40;;;2.15;;
56039;SDS011;43937;41.366;2.072;2022-11-15T21:26:12;4.45;;;2.03;;
56039;SDS011;43937;41.366;2.072;2022-11-15T21:28:37;3.22;;;2.08;;
56039;SDS011;43937;41.366;2.072;2022-11-15T21:31:03;3.30;;;1.52;;
56039;SDS011;43937;41.366;2.072;2022-11-15T21:33:29;3.47;;;2.00;;
56039;SDS011;43937;41.366;2.072;2022-11-15T21:36:08;6.50;;;2.15;;
56039;SDS011;43937;41.366;2.072;2022-11-15T21:40:43;3.03;;;1.50;;
56039;SDS011;43937;41.366;2.072;2022-11-15T21:45:15;8.35;;;2.22;;
56039;SDS011;43937;41.366;2.072;2022-11-15T21:47:40;5.25;;;2.08;;
56039;SDS011;43937;41.366;2.072;2022-11-15T21:50:06;2.78;;;1.30;;
56039;SDS011;43937;41.366;2.072;2022-11-15T21:52:32;1.23;;;1.10;;
56039;SDS011;43937;41.366;2.072;2022-11-15T21:54:57;1.77;;;0.82;;
56039;SDS011;43937;41.366;2.072;2022-11-15T21:57:23;2.13;;;1.10;;
56039;SDS011;43937;41.366;2.072;2022-11-15T21:59:48;1.80;;;1.45;;
56039;SDS011;43937;41.366;2.072;2022-11-15T22:02:32;2.85;;;1.27;;
56039;SDS011;43937;41.366;2.072;2022-11-15T22:04:57;2.42;;;1.15;;
56039;SDS011;43937;41.366;2.072;2022-11-15T22:07:23;2.25;;;1.10;;
56039;SDS011;43937;41.366;2.072;2022-11-15T22:09:48;6.97;;;0.95;;
56039;SDS011;43937;41.366;2.072;2022-11-15T22:12:14;1.48;;;0.93;;
56039;SDS011;43937;41.366;2.072;2022-11-15T22:14:39;1.05;;;0.88;;
56039;SDS011;43937;41.366;2.072;2022-11-15T22:17:05;0.63;;;0.63;;
56039;SDS011;43937;41.366;2.072;2022-11-15T22:20:21;0.70;;;0.70;;
56039;SDS011;43937;41.366;2.072;2022-11-15T22:25:41;0.70;;;0.70;;
56039;SDS011;43937;41.366;2.072;2022-11-15T22:28:07;1.95;;;0.85;;
56039;SDS011;43937;41.366;2.072;2022-11-15T22:30:35;1.20;;;0.90;;
56039;SDS011;43937;41.366;2.072;2022-11-15T22:33:00;0.40;;;0.38;;
56039;SDS011;43937;41.366;2.072;2022-11-15T22:35:25;1.02;;;0.63;;
56039;SDS011;43937;41.366;2.072;2022-11-15T22:37:51;1.75;;;0.85;;
56039;SDS011;43937;41.366;2.072;2022-11-15T22:42:06;4.80;;;0.52;;